createdAt,value
2018-08-18T00:02:38.022Z,99518.77
2018-08-18T00:05:40.328Z,99524.59
2018-08-18T00:08:42.534Z,99525.04
2018-08-18T00:11:44.772Z,99532.02
2018-08-18T00:14:46.984Z,99522.47
2018-08-18T00:17:49.194Z,99528.86
2018-08-18T00:20:51.454Z,99524.63
2018-08-18T00:24:16.462Z,99519.74
2018-08-18T00:27:18.681Z,99523.13
2018-08-18T00:30:25.886Z,99523.70
2018-08-18T00:33:28.083Z,99525.87
2018-08-18T00:36:30.383Z,99518.37
2018-08-18T00:39:32.740Z,99528.93
2018-08-18T00:42:35.061Z,99522.45
2018-08-18T00:45:37.371Z,99526.60
2018-08-18T00:48:39.591Z,99524.77
2018-08-18T00:51:41.893Z,99525.90
2018-08-18T00:54:44.113Z,99530.25
2018-08-18T00:57:46.378Z,99528.93
2018-08-18T01:00:54.352Z,99533.91
2018-08-18T01:03:58.512Z,99531.27
2018-08-18T01:07:02.106Z,99531.92
2018-08-18T01:10:04.573Z,99534.03
2018-08-18T01:13:06.892Z,99535.20
2018-08-18T01:16:09.089Z,99529.56
2018-08-18T01:19:11.339Z,99536.16
2018-08-18T01:22:13.589Z,99535.28
2018-08-18T01:25:15.858Z,99539.34
2018-08-18T01:28:18.124Z,99541.93
2018-08-18T01:31:22.040Z,99551.95
2018-08-18T01:34:24.264Z,99549.13
2018-08-18T01:37:26.593Z,99548.63
2018-08-18T01:40:29.050Z,99542.86
2018-08-18T01:43:31.290Z,99554.91
2018-08-18T01:46:33.604Z,99558.78
2018-08-18T01:49:36.606Z,99569.51
2018-08-18T01:52:38.913Z,99572.38
2018-08-18T01:55:41.322Z,99566.67
2018-08-18T01:58:43.533Z,99563.62
2018-08-18T02:01:46.034Z,99567.17
2018-08-18T02:04:48.679Z,99561.95
2018-08-18T02:07:50.915Z,99561.08
2018-08-18T02:10:53.217Z,99561.20
2018-08-18T02:13:56.233Z,99562.64
2018-08-18T02:17:10.802Z,99563.54
2018-08-18T02:20:12.990Z,99563.75
2018-08-18T02:23:15.220Z,99566.23
2018-08-18T02:26:17.497Z,99566.09
2018-08-18T02:29:19.685Z,99573.53
2018-08-18T02:32:27.722Z,99569.94
2018-08-18T02:35:30.065Z,99571.46
2018-08-18T02:38:32.264Z,99571.49
2018-08-18T02:41:35.026Z,99570.80
2018-08-18T02:44:37.246Z,99567.93
2018-08-18T02:47:39.558Z,99571.10
2018-08-18T02:50:47.664Z,99559.35
2018-08-18T02:53:50.012Z,99564.16
2018-08-18T02:56:52.295Z,99567.15
2018-08-18T02:59:56.104Z,99571.77
2018-08-18T03:02:58.342Z,99569.85
2018-08-18T03:06:06.235Z,99568.23
2018-08-18T03:09:09.463Z,99571.55
2018-08-18T03:12:11.962Z,99573.70
2018-08-18T03:15:28.862Z,99580.10
2018-08-18T03:18:53.453Z,99580.94
2018-08-18T03:21:56.717Z,99585.20
2018-08-18T03:24:58.948Z,99583.70
2018-08-18T03:28:01.171Z,99581.74
2018-08-18T03:31:04.173Z,99583.55
2018-08-18T03:34:07.048Z,99586.00
2018-08-18T03:37:24.488Z,99593.73
2018-08-18T03:40:26.750Z,99593.08
2018-08-18T03:43:29.090Z,99587.84
2018-08-18T03:46:31.385Z,99590.63
2018-08-18T03:49:33.794Z,99590.31
2018-08-18T03:52:35.985Z,99588.51
2018-08-18T03:55:38.285Z,99589.02
2018-08-18T03:58:50.821Z,99599.34
2018-08-18T04:01:54.012Z,99592.80
2018-08-18T04:05:00.912Z,99602.47
2018-08-18T04:08:03.124Z,99606.39
2018-08-18T04:11:05.274Z,99608.20
2018-08-18T04:14:08.036Z,99607.55
2018-08-18T04:17:22.061Z,99611.64
2018-08-18T04:20:24.374Z,99614.42
2018-08-18T04:23:26.594Z,99620.82
2018-08-18T04:26:29.504Z,99621.31
2018-08-18T04:29:31.786Z,99617.38
2018-08-18T04:32:46.059Z,99624.91
2018-08-18T04:35:52.842Z,99624.73
2018-08-18T04:38:55.017Z,99630.14
2018-08-18T04:41:57.188Z,99633.91
2018-08-18T04:44:59.455Z,99631.12
2018-08-18T04:48:01.621Z,99640.97
2018-08-18T04:51:03.886Z,99638.64
2018-08-18T04:54:06.630Z,99640.55
2018-08-18T04:57:08.877Z,99634.35
2018-08-18T05:00:13.140Z,99639.55
2018-08-18T05:03:15.437Z,99642.98
2018-08-18T05:06:22.035Z,99640.95
2018-08-18T05:09:24.468Z,99644.41
2018-08-18T05:12:26.761Z,99648.25
2018-08-18T05:15:29.204Z,99644.61
2018-08-18T05:18:31.367Z,99646.86
2018-08-18T05:21:33.577Z,99656.90
2018-08-18T05:24:35.791Z,99650.70
2018-08-18T05:27:38.078Z,99654.96
2018-08-18T05:30:40.586Z,99657.28
2018-08-18T05:33:42.776Z,99651.16
2018-08-18T05:36:45.074Z,99655.81
2018-08-18T05:39:47.373Z,99658.27
2018-08-18T05:42:49.686Z,99661.02
2018-08-18T05:45:51.919Z,99658.72
2018-08-18T05:48:54.878Z,99660.23
2018-08-18T05:51:57.252Z,99666.35
2018-08-18T05:54:59.552Z,99657.84
2018-08-18T05:58:01.798Z,99659.08
2018-08-18T06:01:14.506Z,99658.83
2018-08-18T06:04:18.107Z,99663.36
2018-08-18T06:07:20.473Z,99660.30
2018-08-18T06:10:22.816Z,99654.50
2018-08-18T06:13:25.008Z,99661.11
2018-08-18T06:16:27.304Z,99660.57
2018-08-18T06:19:29.498Z,99672.57
2018-08-18T06:22:31.719Z,99668.80
2018-08-18T06:25:34.146Z,99668.97
2018-08-18T06:28:36.386Z,99661.77
2018-08-18T06:31:56.274Z,99669.09
2018-08-18T06:34:58.500Z,99672.78
2018-08-18T06:38:01.007Z,99677.70
2018-08-18T06:41:03.559Z,99681.13
2018-08-18T06:44:05.818Z,99681.31
2018-08-18T06:47:08.010Z,99684.67
2018-08-18T06:50:12.191Z,99687.31
2018-08-18T06:53:14.484Z,99693.38
2018-08-18T06:56:16.809Z,99690.62
2018-08-18T06:59:18.964Z,99693.31
2018-08-18T07:02:24.293Z,99695.64
2018-08-18T07:05:26.424Z,99693.41
2018-08-18T07:08:28.834Z,99690.17
2018-08-18T07:11:30.949Z,99688.63
2018-08-18T07:14:33.258Z,99684.62
2018-08-18T07:17:35.534Z,99694.33
2018-08-18T07:20:37.921Z,99698.68
2018-08-18T07:23:40.148Z,99695.87
2018-08-18T07:26:42.361Z,99685.48
2018-08-18T07:29:48.853Z,99685.44
2018-08-18T07:32:51.153Z,99686.73
2018-08-18T07:35:54.677Z,99684.82
2018-08-18T07:38:56.806Z,99685.72
2018-08-18T07:41:58.977Z,99679.91
2018-08-18T07:45:01.237Z,99680.86
2018-08-18T07:48:04.283Z,99681.69
2018-08-18T07:51:06.514Z,99683.19
2018-08-18T07:54:08.644Z,99687.50
2018-08-18T07:57:10.797Z,99692.61
2018-08-18T08:00:13.051Z,99691.69
2018-08-18T08:03:16.051Z,99691.55
2018-08-18T08:06:18.242Z,99693.12
2018-08-18T08:09:20.525Z,99693.88
2018-08-18T08:12:22.721Z,99700.27
2018-08-18T08:15:24.916Z,99708.55
2018-08-18T08:18:27.112Z,99696.45
2018-08-18T08:21:29.317Z,99703.69
2018-08-18T08:24:31.524Z,99706.42
2018-08-18T08:27:33.756Z,99711.59
2018-08-18T08:30:35.997Z,99710.65
2018-08-18T08:33:38.476Z,99717.08
2018-08-18T08:36:40.659Z,99716.70
2018-08-18T08:39:43.761Z,99712.95
2018-08-18T08:42:46.086Z,99707.12
2018-08-18T08:45:48.331Z,99710.29
2018-08-18T08:48:53.019Z,99707.61
2018-08-18T08:51:55.330Z,99699.61
2018-08-18T08:54:57.573Z,99702.02
2018-08-18T08:58:00.008Z,99702.34
2018-08-18T09:01:02.260Z,99695.55
2018-08-18T09:04:04.491Z,99694.37
2018-08-18T09:07:08.040Z,99694.70
2018-08-18T09:10:12.021Z,99696.73
2018-08-18T09:13:14.216Z,99699.50
2018-08-18T09:16:16.544Z,99700.50
2018-08-18T09:19:20.574Z,99688.44
2018-08-18T09:22:23.102Z,99685.00
2018-08-18T09:25:27.672Z,99687.36
2018-08-18T09:28:30.070Z,99698.97
2018-08-18T09:31:32.274Z,99699.88
2018-08-18T09:34:40.124Z,99690.57
2018-08-18T09:37:47.116Z,99683.98
2018-08-18T09:40:51.568Z,99682.54
2018-08-18T09:43:53.856Z,99682.14
2018-08-18T09:46:56.791Z,99685.39
2018-08-18T09:49:59.114Z,99670.25
2018-08-18T09:53:01.365Z,99679.41
2018-08-18T09:56:03.561Z,99676.00
2018-08-18T09:59:05.877Z,99668.63
2018-08-18T10:02:09.676Z,99675.89
2018-08-18T10:05:12.075Z,99670.25
2018-08-18T10:08:14.541Z,99672.50
2018-08-18T10:11:17.175Z,99660.25
2018-08-18T10:14:19.456Z,99676.00
2018-08-18T10:17:21.785Z,99666.53
2018-08-18T10:20:24.004Z,99666.81
2018-08-18T10:23:26.226Z,99674.61
2018-08-18T10:26:28.623Z,99671.55
2018-08-18T10:29:30.925Z,99676.84
2018-08-18T10:32:37.753Z,99671.58
2018-08-18T10:35:41.037Z,99674.61
2018-08-18T10:38:43.356Z,99672.93
2018-08-18T10:41:56.999Z,99664.05
2018-08-18T10:45:03.577Z,99663.11
2018-08-18T10:48:05.950Z,99659.39
2018-08-18T10:51:28.236Z,99642.90
2018-08-18T10:54:30.567Z,99660.69
2018-08-18T10:57:45.422Z,99648.52
2018-08-18T11:00:47.733Z,99658.46
2018-08-18T11:03:50.450Z,99655.12
2018-08-18T11:06:52.814Z,99656.53
2018-08-18T11:09:55.316Z,99653.24
2018-08-18T11:12:57.597Z,99655.87
2018-08-18T11:15:59.970Z,99644.70
2018-08-18T11:19:02.264Z,99643.11
2018-08-18T11:22:15.803Z,99634.33
2018-08-18T11:25:19.860Z,99624.25
2018-08-18T11:28:22.714Z,99638.66
2018-08-18T11:31:24.943Z,99646.48
2018-08-18T11:34:27.254Z,99629.41
2018-08-18T11:37:29.551Z,99627.31
2018-08-18T11:40:31.934Z,99641.98
2018-08-18T11:43:51.404Z,99627.87
2018-08-18T11:46:53.680Z,99612.14
2018-08-18T11:49:55.969Z,99615.36
2018-08-18T11:52:58.250Z,99623.84
2018-08-18T11:56:00.467Z,99630.95
2018-08-18T11:59:11.787Z,99619.41
2018-08-18T12:02:14.100Z,99610.66
2018-08-18T12:05:16.285Z,99614.91
2018-08-18T12:08:19.415Z,99610.33
2018-08-18T12:11:21.692Z,99614.94
2018-08-18T12:14:23.999Z,99606.28
2018-08-18T12:17:26.277Z,99590.02
2018-08-18T12:20:28.684Z,99591.53
2018-08-18T12:23:31.381Z,99578.95
2018-08-18T12:26:33.741Z,99568.97
2018-08-18T12:29:36.009Z,99539.30
2018-08-18T12:32:38.175Z,99540.55
2018-08-18T12:35:41.119Z,99566.41
2018-08-18T12:38:45.924Z,99553.88
2018-08-18T12:41:48.229Z,99559.94
2018-08-18T12:44:50.539Z,99576.63
2018-08-18T12:48:09.501Z,99571.12
2018-08-18T12:51:12.904Z,99522.80
2018-08-18T12:54:15.219Z,99515.50
2018-08-18T12:57:29.712Z,99572.09
2018-08-18T13:00:31.947Z,99562.86
2018-08-18T13:03:34.118Z,99566.17
2018-08-18T13:06:40.761Z,99497.09
2018-08-18T13:09:43.098Z,99537.38
2018-08-18T13:12:45.388Z,99495.25
2018-08-18T13:15:49.469Z,99498.11
2018-08-18T13:18:51.654Z,99426.62
2018-08-18T13:21:54.960Z,99530.02
2018-08-18T13:24:58.147Z,99512.50
2018-08-18T13:28:02.572Z,99504.55
2018-08-18T13:31:04.872Z,99547.08
2018-08-18T13:34:08.141Z,99480.27
2018-08-18T13:37:10.391Z,99499.69
2018-08-18T13:40:13.078Z,99505.07
2018-08-18T13:43:15.315Z,99442.52
2018-08-18T13:46:19.407Z,99465.55
2018-08-18T13:49:24.060Z,99422.55
2018-08-18T13:52:29.008Z,99463.16
2018-08-18T13:55:36.545Z,99459.27
2018-08-18T13:58:38.888Z,99434.58
2018-08-18T14:01:42.417Z,99468.28
2018-08-18T14:04:44.809Z,99365.60
2018-08-18T14:07:53.703Z,99365.64
2018-08-18T14:10:55.996Z,99390.72
2018-08-18T14:14:00.492Z,99362.69
2018-08-18T14:17:02.799Z,99366.98
2018-08-18T14:20:05.214Z,99350.30
2018-08-18T14:23:08.016Z,99292.63
2018-08-18T14:26:10.387Z,99316.47
2018-08-18T14:29:13.024Z,99200.87
2018-08-18T14:32:23.787Z,99271.56
2018-08-18T14:35:26.060Z,99328.05
2018-08-18T14:38:28.257Z,99412.94
2018-08-18T14:41:38.152Z,99367.43
2018-08-18T14:44:40.387Z,99244.72
2018-08-18T14:47:42.773Z,99243.95
2018-08-18T14:50:45.069Z,99285.42
2018-08-18T14:53:47.444Z,99276.73
2018-08-18T14:56:49.740Z,99357.05
2018-08-18T14:59:52.181Z,99327.41
2018-08-18T15:02:54.516Z,99308.05
2018-08-18T15:05:56.809Z,99252.27
2018-08-18T15:08:59.106Z,99320.84
2018-08-18T15:12:02.102Z,99322.97
2018-08-18T15:15:04.509Z,99276.09
2018-08-18T15:18:09.685Z,99270.37
2018-08-18T15:21:12.002Z,99308.37
2018-08-18T15:24:14.296Z,99331.22
2018-08-18T15:27:16.689Z,99355.85
2018-08-18T15:30:19.282Z,99433.09
2018-08-18T15:33:22.943Z,99434.42
2018-08-18T15:36:31.889Z,99362.27
2018-08-18T15:39:34.084Z,99435.16
2018-08-18T15:42:36.465Z,99379.75
2018-08-18T15:45:57.074Z,99437.64
2018-08-18T15:48:59.380Z,99358.06
2018-08-18T15:52:01.645Z,99414.73
2018-08-18T15:55:04.618Z,99380.33
2018-08-18T15:58:06.932Z,99327.45
2018-08-18T16:01:09.145Z,99263.84
2018-08-18T16:04:11.498Z,99257.56
2018-08-18T16:07:13.723Z,99374.91
2018-08-18T16:10:16.004Z,99433.62
2018-08-18T16:13:18.237Z,99376.23
2018-08-18T16:16:20.603Z,99291.45
2018-08-18T16:19:23.080Z,99200.17
2018-08-18T16:22:25.325Z,99182.34
2018-08-18T16:25:35.380Z,99256.84
2018-08-18T16:28:38.091Z,99340.89
2018-08-18T16:31:40.277Z,99355.48
2018-08-18T16:34:44.223Z,99427.09
2018-08-18T16:37:46.564Z,99430.73
2018-08-18T16:40:48.781Z,99423.88
2018-08-18T16:43:51.093Z,99446.41
2018-08-18T16:46:53.451Z,99444.67
2018-08-18T16:49:55.740Z,99478.19
2018-08-18T16:52:59.392Z,99512.58
2018-08-18T16:56:01.682Z,99426.97
2018-08-18T16:59:03.948Z,99430.73
2018-08-18T17:02:13.445Z,99506.14
2018-08-18T17:05:15.706Z,99411.92
2018-08-18T17:08:17.956Z,99413.36
2018-08-18T17:11:21.233Z,99431.05
2018-08-18T17:14:23.718Z,99369.44
2018-08-18T17:17:26.278Z,99450.45
2018-08-18T17:20:28.640Z,99461.51
2018-08-18T17:23:32.134Z,99428.36
2018-08-18T17:26:34.353Z,99500.45
2018-08-18T17:29:38.295Z,99447.31
2018-08-18T17:32:40.423Z,99407.18
2018-08-18T17:35:42.723Z,99478.45
2018-08-18T17:38:45.138Z,99521.53
2018-08-18T17:41:47.397Z,99484.69
2018-08-18T17:44:49.699Z,99533.86
2018-08-18T17:47:52.893Z,99566.44
2018-08-18T17:50:55.485Z,99582.48
2018-08-18T17:53:57.654Z,99584.42
2018-08-18T17:57:00.021Z,99617.83
2018-08-18T18:00:07.944Z,99613.70
2018-08-18T18:03:10.291Z,99628.20
2018-08-18T18:06:12.511Z,99602.21
2018-08-18T18:09:14.720Z,99575.88
2018-08-18T18:12:25.608Z,99546.92
2018-08-18T18:15:30.592Z,99520.24
2018-08-18T18:18:38.489Z,99515.35
2018-08-18T18:21:41.616Z,99509.59
2018-08-18T18:24:43.865Z,99504.17
2018-08-18T18:27:46.291Z,99507.88
2018-08-18T18:30:51.229Z,99504.44
2018-08-18T18:34:08.596Z,99503.88
2018-08-18T18:37:10.979Z,99518.02
2018-08-18T18:40:13.309Z,99518.09
2018-08-18T18:43:15.518Z,99519.50
2018-08-18T18:46:17.765Z,99516.72
2018-08-18T18:49:30.126Z,99517.27
2018-08-18T18:52:32.352Z,99524.09
2018-08-18T18:55:40.631Z,99531.81
2018-08-18T18:58:42.983Z,99535.02
2018-08-18T19:01:45.342Z,99540.12
2018-08-18T19:04:47.556Z,99547.17
2018-08-18T19:08:04.915Z,99549.27
2018-08-18T19:11:07.308Z,99551.27
2018-08-18T19:14:09.649Z,99555.09
2018-08-18T19:17:12.007Z,99553.75
2018-08-18T19:20:19.284Z,99559.15
2018-08-18T19:23:21.493Z,99564.44
2018-08-18T19:26:23.803Z,99568.41
2018-08-18T19:29:27.043Z,99569.78
2018-08-18T19:32:29.451Z,99572.37
2018-08-18T19:35:36.446Z,99580.27
2018-08-18T19:38:38.690Z,99585.41
2018-08-18T19:41:40.932Z,99579.97
2018-08-18T19:44:44.591Z,99586.73
2018-08-18T19:47:46.910Z,99591.39
2018-08-18T19:50:55.835Z,99596.05
2018-08-18T19:53:58.176Z,99597.75
2018-08-18T19:57:00.373Z,99602.48
2018-08-18T20:00:26.348Z,99603.94
2018-08-18T20:03:28.570Z,99603.44
2018-08-18T20:06:30.837Z,99597.70
2018-08-18T20:09:33.153Z,99598.47
2018-08-18T20:12:35.470Z,99601.50
2018-08-18T20:15:37.866Z,99610.99
2018-08-18T20:18:40.266Z,99616.63
2018-08-18T20:21:42.519Z,99617.64
2018-08-18T20:24:44.778Z,99626.19
2018-08-18T20:27:47.062Z,99627.51
2018-08-18T20:30:49.483Z,99628.00
2018-08-18T20:33:51.766Z,99629.09
2018-08-18T20:36:54.110Z,99643.91
2018-08-18T20:39:56.449Z,99638.16
2018-08-18T20:42:58.754Z,99645.51
2018-08-18T20:46:01.178Z,99642.74
2018-08-18T20:49:03.550Z,99642.48
2018-08-18T20:52:06.821Z,99649.81
2018-08-18T20:55:09.533Z,99649.87
2018-08-18T20:58:12.119Z,99651.19
2018-08-18T21:01:14.336Z,99654.27
2018-08-18T21:04:17.138Z,99653.66
2018-08-18T21:07:19.707Z,99654.92
2018-08-18T21:10:21.974Z,99656.13
2018-08-18T21:13:24.674Z,99661.52
2018-08-18T21:16:27.006Z,99663.58
2018-08-18T21:19:29.256Z,99667.64
2018-08-18T21:22:32.091Z,99663.47
2018-08-18T21:25:48.240Z,99667.16
2018-08-18T21:28:52.579Z,99667.58
2018-08-18T21:31:54.906Z,99666.63
2018-08-18T21:34:57.140Z,99666.66
2018-08-18T21:37:59.429Z,99674.65
2018-08-18T21:41:01.712Z,99679.38
2018-08-18T21:44:04.753Z,99679.55
2018-08-18T21:47:07.126Z,99684.14
2018-08-18T21:50:09.433Z,99675.10
2018-08-18T21:53:13.231Z,99674.97
2018-08-18T21:56:15.576Z,99682.34
2018-08-18T21:59:17.758Z,99680.48
2018-08-18T22:02:32.327Z,99682.34
2018-08-18T22:05:34.496Z,99683.83
2018-08-18T22:08:36.940Z,99683.56
2018-08-18T22:11:39.171Z,99685.06
2018-08-18T22:14:41.440Z,99689.05
2018-08-18T22:17:43.997Z,99682.28
2018-08-18T22:20:46.197Z,99690.47
2018-08-18T22:23:48.575Z,99690.14
2018-08-18T22:26:50.952Z,99689.14
2018-08-18T22:29:53.278Z,99691.47
2018-08-18T22:32:55.670Z,99687.33
2018-08-18T22:35:58.081Z,99688.05
2018-08-18T22:39:00.764Z,99688.45
2018-08-18T22:42:03.136Z,99680.09
2018-08-18T22:45:16.776Z,99682.45
2018-08-18T22:48:19.121Z,99683.77
2018-08-18T22:51:21.501Z,99685.12
2018-08-18T22:54:23.906Z,99684.08
2018-08-18T22:57:26.165Z,99683.16
2018-08-18T23:00:28.589Z,99674.48
2018-08-18T23:03:32.519Z,99681.91
2018-08-18T23:06:35.878Z,99679.81
2018-08-18T23:09:38.153Z,99684.97
2018-08-18T23:12:40.727Z,99687.59
2018-08-18T23:15:47.612Z,99676.80
2018-08-18T23:18:49.926Z,99678.83
2018-08-18T23:21:52.124Z,99679.32
2018-08-18T23:24:54.399Z,99683.12
2018-08-18T23:27:56.863Z,99675.91
2018-08-18T23:30:59.152Z,99677.56
2018-08-18T23:34:01.574Z,99674.29
2018-08-18T23:37:04.551Z,99682.67
2018-08-18T23:40:06.966Z,99681.70
2018-08-18T23:43:09.318Z,99678.66
2018-08-18T23:46:11.706Z,99673.80
2018-08-18T23:49:14.131Z,99675.66
2018-08-18T23:52:16.589Z,99676.00
2018-08-18T23:55:18.948Z,99674.69
2018-08-18T23:58:21.732Z,99675.51
